Pagrindinis puslapis
METAR-TAF:

METAR-TAF

Oro uostai :

Konakris, Gvinėja

platuma: 09-34N, ilguma: 013-37W, Aukštis: 26 m

Dabartinis oras

Ataskaita buvo paskelbta 7 valandos ir 20 minutes, ne 21:00 UTC
Ramus vėjas
Temperatūra 27°C
Drėgmė 70%
Slėgis 1012 hPa
Matomumas: 3000 m
rūkana

METAR: GUCY 172100Z 00000KT 3000 BR NSC 27/21 Q1012 NOSIG

Laikas: 04:20 (04:20 UTC)

Prognozė

Ataskaita buvo paskelbta 11 valandos ir 20 minutes, ne 17:00 UTC
Prognozė galioja nuo 17 metu 18 UTC su 18 metu 24 UTC
Vėjas 6 kt iš Šiaurės Vakarų
Matomumas: 5000 m
migla
Laikinai
nuo 17 metu 23 UTC su 18 metu 02 UTC
Matomumas: 3000 m
migla
Tapsmas
nuo 18 metu 04 UTC su 18 metu 08 UTC
Vėjas 2 kt nuo kintamojo kryptimis
Matomumas: 2500 m
Mažai debesys ne aukštis 1600 ft
Su prošvaistėmis ne aukštis 11000 ft
rūkana

TAF: GUCY 171700Z 1718/1824 31006KT 5000 HZ NSC TEMPO 1723/1802 3000 HZ BECMG 1804/1808 VRB02KT 2500 BR FEW016 BKN110

Orai ataskaitas ir orų prognozės (METAR, TAF).

turimą stotys yra geltonos ir raudonos taškus žemėlapyje.

Perkelti pele per norėdami pamatyti stoties vardą.

Tada spustelėkite, norėdami matyti oro stebėjimo ir prognozės.

Norėdami pakeisti žemėlapį: spustelėkite ant žalios mygtukų su juodo kryžiaus žemyn,; žalią mygtuką su brūkšneliu, jei norite nutolinti; arba žalių rodyklių gretimoms žemėlapius.


METAR-TAF: